Time;durP1;ratioP1;P1;durP2;ratioP2;P2;SDS_P1;SDS_P2;PMS_P1;PMS_P2;Temp;Humidity;BMP_temperature;BMP_pressure;BME280_temperature;BME280_humidity;BME280_pressure;Samples;Min_cycle;Max_cycle;Signal;HPM_P1;HPM_P2
2022/03/06 00:01:32;;;;;;;45.53;22.02;;;-2.30;99.90;;;;;;5051144;28;20048;-61
2022/03/06 00:04:01;;;;;;;44.97;21.38;;;-2.30;99.90;;;;;;5056606;28;20083;-61
2022/03/06 00:06:27;;;;;;;37.28;19.73;;;-2.30;99.90;;;;;;5056399;28;20055;-61
2022/03/06 00:08:54;;;;;;;41.60;21.33;;;-2.30;99.90;;;;;;5057868;28;20493;-61
2022/03/06 00:11:21;;;;;;;;;;;-2.40;99.90;;;;;;5057441;28;20759;-61
2022/03/06 00:13:47;;;;;;;36.50;18.90;;;-2.40;99.90;;;;;;5057188;28;19924;-61
2022/03/06 00:16:14;;;;;;;;;;;-2.40;99.90;;;;;;5057765;28;20048;-61
2022/03/06 00:18:41;;;;;;;36.03;19.15;;;-2.50;99.90;;;;;;5057197;28;19924;-62
2022/03/06 00:21:09;;;;;;;45.15;19.60;;;-2.50;99.90;;;;;;5057401;28;20072;-61
2022/03/06 00:23:36;;;;;;;39.75;20.45;;;-2.50;99.90;;;;;;5056922;28;20048;-61
2022/03/06 00:26:03;;;;;;;39.20;19.50;;;-2.50;99.90;;;;;;5057303;28;20107;-61
2022/03/06 00:28:30;;;;;;;40.40;20.50;;;-2.50;99.90;;;;;;5061266;28;20759;-61
2022/03/06 00:30:57;;;;;;;37.42;18.50;;;-2.50;99.90;;;;;;5054865;28;20053;-61
2022/03/06 00:33:24;;;;;;;;;;;-2.50;99.90;;;;;;5047733;28;20040;-61
2022/03/06 00:35:51;;;;;;;44.47;20.87;;;-2.60;99.90;;;;;;5057052;28;20014;-61
2022/03/06 00:38:18;;;;;;;44.00;20.88;;;-2.60;99.90;;;;;;5057203;28;20526;-61
2022/03/06 00:40:45;;;;;;;40.20;21.67;;;-2.60;99.90;;;;;;5056526;28;20040;-60
2022/03/06 00:43:13;;;;;;;40.53;21.98;;;-2.60;99.90;;;;;;5056327;28;20052;-61
2022/03/06 00:45:39;;;;;;;39.47;20.42;;;-2.70;99.90;;;;;;5057259;28;20437;-60
2022/03/06 00:48:06;;;;;;;38.05;20.45;;;-2.70;99.90;;;;;;5056770;28;20041;-61
2022/03/06 00:50:36;;;;;;;;;;;-2.70;99.90;;;;;;5057476;28;20039;-61
2022/03/06 00:53:03;;;;;;;44.20;19.35;;;-2.70;99.90;;;;;;5063805;28;19968;-60
2022/03/06 00:55:31;;;;;;;42.70;20.10;;;-2.70;99.90;;;;;;5056154;28;20636;-61
2022/03/06 00:58:05;;;;;;;39.97;20.75;;;-2.70;99.90;;;;;;5056554;28;20090;-61
2022/03/06 01:00:35;;;;;;;38.00;20.95;;;-2.70;99.90;;;;;;5062685;28;20043;-60
2022/03/06 01:03:05;;;;;;;41.58;20.98;;;-2.80;99.90;;;;;;5074800;28;20879;-61
2022/03/06 01:05:32;;;;;;;39.03;18.60;;;-2.80;99.90;;;;;;5076600;28;20052;-59
2022/03/06 01:07:59;;;;;;;41.28;19.70;;;-2.80;99.90;;;;;;5074151;28;20043;-60
2022/03/06 01:10:26;;;;;;;37.88;19.45;;;-2.80;99.90;;;;;;5042442;28;20444;-60
2022/03/06 01:12:54;;;;;;;38.95;18.92;;;-2.80;99.90;;;;;;5036618;28;20048;-60
2022/03/06 01:15:21;;;;;;;38.33;18.73;;;-2.80;99.90;;;;;;5036128;28;20053;-61
2022/03/06 01:17:48;;;;;;;38.65;19.85;;;-2.80;99.90;;;;;;5036058;28;20703;-60
2022/03/06 01:20:17;;;;;;;38.10;18.52;;;-2.90;99.90;;;;;;5036537;28;20041;-61
2022/03/06 01:22:45;;;;;;;43.33;21.17;;;-2.80;99.90;;;;;;5036327;28;20049;-61
2022/03/06 01:25:12;;;;;;;41.15;19.45;;;-2.90;99.90;;;;;;5035645;28;20033;-61
2022/03/06 01:27:39;;;;;;;41.65;19.83;;;-2.90;99.90;;;;;;5036416;28;20045;-61
2022/03/06 01:30:08;;;;;;;42.30;21.17;;;-2.90;99.90;;;;;;5058909;28;20106;-61
2022/03/06 01:32:35;;;;;;;45.88;21.52;;;-3.00;99.90;;;;;;5055794;28;20052;-61
2022/03/06 01:35:02;;;;;;;42.10;20.80;;;-3.00;99.90;;;;;;5061126;28;20137;-61
2022/03/06 01:37:29;;;;;;;40.50;20.77;;;-3.00;99.90;;;;;;5056490;28;20506;-61
2022/03/06 01:39:56;;;;;;;;;;;-3.10;99.90;;;;;;5056096;28;20044;-61
2022/03/06 01:42:22;;;;;;;46.15;22.38;;;-3.10;99.90;;;;;;5056111;28;19928;-62
2022/03/06 01:44:51;;;;;;;39.30;19.75;;;-3.20;99.90;;;;;;5055091;28;20044;-61
2022/03/06 01:47:51;;;;;;;37.15;18.40;;;-3.20;99.90;;;;;;5055305;28;20091;-62
2022/03/06 01:50:22;;;;;;;40.42;18.83;;;-3.20;99.90;;;;;;5043649;28;20611;-62
2022/03/06 01:52:51;;;;;;;37.00;20.60;;;-3.20;99.90;;;;;;5063231;28;20090;-62
2022/03/06 01:55:20;;;;;;;41.10;20.35;;;-3.30;99.90;;;;;;5054474;28;20048;-62
2022/03/06 01:57:47;;;;;;;41.53;20.02;;;-3.30;99.90;;;;;;5056094;28;20036;-62
2022/03/06 02:00:18;;;;;;;41.38;21.80;;;-3.30;99.90;;;;;;5059756;28;20184;-61
2022/03/06 02:02:45;;;;;;;39.95;19.85;;;-3.30;99.90;;;;;;5075232;28;20044;-61
2022/03/06 02:05:12;;;;;;;41.28;21.30;;;-3.30;99.90;;;;;;5075327;28;20060;-62
2022/03/06 02:07:39;;;;;;;41.38;20.20;;;-3.30;99.90;;;;;;5075590;28;20048;-61
2022/03/06 02:10:08;;;;;;;41.38;19.58;;;-3.30;99.90;;;;;;5075960;28;20129;-61
2022/03/06 02:12:35;;;;;;;39.20;19.02;;;-3.30;99.90;;;;;;5075601;28;20668;-61
2022/03/06 02:15:05;;;;;;;49.05;23.05;;;-3.30;99.90;;;;;;5075465;28;20051;-61
2022/03/06 02:17:33;;;;;;;36.40;19.83;;;-3.40;99.90;;;;;;5075592;28;20047;-61
2022/03/06 02:20:03;;;;;;;41.13;19.40;;;-3.30;99.90;;;;;;5075722;28;20052;-62
2022/03/06 02:22:32;;;;;;;43.85;20.38;;;-3.40;99.90;;;;;;5075964;28;20824;-61
2022/03/06 02:25:00;;;;;;;41.78;22.08;;;-3.40;99.90;;;;;;5077793;28;20040;-61
2022/03/06 02:27:27;;;;;;;41.72;20.83;;;-3.40;99.90;;;;;;5080087;28;20117;-61
2022/03/06 02:29:54;;;;;;;;;;;-3.40;99.90;;;;;;5073215;28;20128;-61
2022/03/06 02:32:22;;;;;;;44.65;19.85;;;-3.40;99.90;;;;;;5079555;28;19924;-61
2022/03/06 02:34:51;;;;;;;41.42;20.13;;;-3.50;99.90;;;;;;5072076;28;20676;-61
2022/03/06 02:37:20;;;;;;;37.75;19.77;;;-3.50;99.90;;;;;;5079688;28;20040;-61
2022/03/06 02:39:48;;;;;;;40.78;20.77;;;-3.50;99.90;;;;;;5079231;28;20036;-61
2022/03/06 02:42:24;;;;;;;39.47;20.55;;;-3.60;99.90;;;;;;5079508;28;20048;-61
2022/03/06 02:44:51;;;;;;;40.92;20.13;;;-3.60;99.90;;;;;;5078467;28;20440;-61
2022/03/06 02:47:18;;;;;;;39.95;19.83;;;-3.60;99.90;;;;;;5077094;28;20040;-61
2022/03/06 02:49:45;;;;;;;36.25;18.63;;;-3.60;99.90;;;;;;5079275;28;20047;-61
2022/03/06 02:52:12;;;;;;;42.22;21.58;;;-3.60;99.90;;;;;;5065049;28;20522;-61
2022/03/06 02:54:39;;;;;;;35.25;18.30;;;-3.60;99.90;;;;;;5038548;28;20095;-61
2022/03/06 02:57:06;;;;;;;49.58;23.23;;;-3.60;99.90;;;;;;5039016;28;20067;-61
2022/03/06 02:59:34;;;;;;;46.92;22.77;;;-3.70;99.90;;;;;;5039442;28;20037;-61
2022/03/06 03:02:01;;;;;;;35.92;19.35;;;-3.70;99.90;;;;;;5075836;28;20047;-62
2022/03/06 03:04:28;;;;;;;41.47;20.25;;;-3.70;99.90;;;;;;5078444;28;20047;-62
2022/03/06 03:06:55;;;;;;;40.30;20.00;;;-3.80;99.90;;;;;;5079678;28;20059;-61
2022/03/06 03:09:22;;;;;;;38.05;21.23;;;-3.80;99.90;;;;;;5078851;28;20047;-60
2022/03/06 03:11:54;;;;;;;68.68;25.70;;;-3.80;99.90;;;;;;5079039;28;20052;-61
2022/03/06 03:14:22;;;;;;;37.53;19.52;;;-3.80;99.90;;;;;;5077913;28;20717;-61
2022/03/06 03:16:49;;;;;;;40.63;18.85;;;-3.80;99.90;;;;;;5079145;28;20047;-61
2022/03/06 03:19:17;;;;;;;42.42;20.30;;;-3.80;99.90;;;;;;5078750;28;20072;-61
2022/03/06 03:21:45;;;;;;;37.17;18.92;;;-3.80;99.90;;;;;;5079039;28;20344;-62
2022/03/06 03:24:12;;;;;;;38.83;19.60;;;-3.90;99.90;;;;;;5076998;28;20048;-62
2022/03/06 03:26:39;;;;;;;42.47;20.90;;;-3.90;99.90;;;;;;5079121;28;20048;-60
2022/03/06 03:29:05;;;;;;;37.08;18.75;;;-3.90;99.90;;;;;;5072756;28;20105;-60
2022/03/06 03:31:32;;;;;;;37.78;20.50;;;-3.90;99.90;;;;;;5078352;28;20105;-61
2022/03/06 03:33:59;;;;;;;35.65;18.92;;;-3.90;99.90;;;;;;5071657;28;20059;-61
2022/03/06 03:36:26;;;;;;;46.78;21.92;;;-4.00;99.90;;;;;;5077714;28;20051;-61
2022/03/06 03:38:53;;;;;;;41.85;21.42;;;-4.00;99.90;;;;;;5078318;28;20067;-61
2022/03/06 03:41:22;;;;;;;37.88;19.55;;;-4.00;99.90;;;;;;5078260;28;20609;-61
2022/03/06 03:43:49;;;;;;;40.78;20.33;;;-4.00;99.90;;;;;;5077803;28;20051;-60
2022/03/06 03:46:15;;;;;;;41.15;19.27;;;-4.00;99.90;;;;;;5077554;28;20421;-60
2022/03/06 03:48:42;;;;;;;39.67;19.13;;;-4.00;99.90;;;;;;5078762;28;20044;-60
2022/03/06 03:51:10;;;;;;;44.75;20.75;;;-4.10;99.90;;;;;;5076089;28;20040;-61
2022/03/06 03:53:37;;;;;;;41.33;19.63;;;-4.10;99.90;;;;;;5042192;28;20045;-61
2022/03/06 03:56:05;;;;;;;52.10;21.17;;;-4.10;99.90;;;;;;5038149;28;20457;-61
2022/03/06 03:58:33;;;;;;;39.67;19.90;;;-4.10;99.90;;;;;;5038067;28;20049;-61
2022/03/06 04:01:00;;;;;;;44.58;20.35;;;-4.10;99.90;;;;;;5044878;28;20076;-62
2022/03/06 04:03:27;;;;;;;43.30;21.50;;;-4.10;99.90;;;;;;5036867;28;20068;-61
2022/03/06 04:05:54;;;;;;;35.53;18.10;;;-4.10;99.90;;;;;;5038163;28;20736;-61
2022/03/06 04:08:21;;;;;;;43.47;21.95;;;-4.10;99.90;;;;;;5037513;28;20130;-61
2022/03/06 04:10:48;;;;;;;42.60;21.52;;;-4.10;99.90;;;;;;5037037;28;20037;-61
2022/03/06 04:13:15;;;;;;;43.20;20.13;;;-4.10;99.90;;;;;;5037634;28;20060;-61
2022/03/06 04:15:42;;;;;;;44.85;20.65;;;-4.10;99.90;;;;;;5037412;28;20049;-61
2022/03/06 04:18:09;;;;;;;43.03;21.83;;;-4.20;99.90;;;;;;5037296;28;20041;-61
2022/03/06 04:20:35;;;;;;;;;;;-4.20;99.90;;;;;;5038090;28;20045;-61
2022/03/06 04:23:02;;;;;;;52.53;46.20;;;-4.20;99.90;;;;;;5036991;28;19994;-61
2022/03/06 04:25:29;;;;;;;57.45;23.67;;;-4.20;99.90;;;;;;5037782;28;20040;-61
2022/03/06 04:27:56;;;;;;;47.40;21.48;;;-4.30;99.90;;;;;;5037697;28;20041;-61
2022/03/06 04:30:23;;;;;;;47.63;21.42;;;-4.30;99.90;;;;;;5061710;28;20052;-61
2022/03/06 04:32:50;;;;;;;38.95;20.40;;;-4.30;99.90;;;;;;5057869;28;20041;-61
2022/03/06 04:35:17;;;;;;;39.28;20.33;;;-4.30;99.90;;;;;;5060942;28;20048;-61
2022/03/06 04:37:44;;;;;;;41.58;21.42;;;-4.30;99.90;;;;;;5056893;28;20445;-61
2022/03/06 04:40:11;;;;;;;42.53;20.17;;;-4.30;99.90;;;;;;5057550;28;20659;-61
2022/03/06 04:42:38;;;;;;;45.00;22.13;;;-4.40;99.90;;;;;;5057126;28;20618;-61
2022/03/06 04:45:05;;;;;;;42.17;21.17;;;-4.40;99.90;;;;;;5056031;28;20055;-62
2022/03/06 04:47:32;;;;;;;39.60;20.67;;;-4.40;99.90;;;;;;5056443;28;20079;-61
2022/03/06 04:49:59;;;;;;;38.88;18.88;;;-4.40;99.90;;;;;;5056859;28;20534;-61
2022/03/06 04:52:26;;;;;;;41.33;20.98;;;-4.40;99.90;;;;;;5063842;28;20109;-63
2022/03/06 04:54:53;;;;;;;43.58;20.85;;;-4.40;99.90;;;;;;5055774;28;20098;-61
2022/03/06 04:57:20;;;;;;;44.38;23.20;;;-4.40;99.90;;;;;;5057314;28;20045;-61
2022/03/06 04:59:46;;;;;;;41.33;21.40;;;-4.40;99.90;;;;;;5056565;28;20040;-61
2022/03/06 05:02:13;;;;;;;42.53;20.60;;;-4.50;99.90;;;;;;5075718;28;20043;-61
2022/03/06 05:04:40;;;;;;;43.53;22.17;;;-4.50;99.90;;;;;;5075724;28;20528;-60
2022/03/06 05:07:07;;;;;;;;;;;-4.50;99.90;;;;;;5077706;28;20052;-60
2022/03/06 05:09:34;;;;;;;44.47;20.88;;;-4.50;99.90;;;;;;5076680;28;20469;-60
2022/03/06 05:12:00;;;;;;;50.88;23.40;;;-4.60;99.90;;;;;;5076768;28;20044;-61
2022/03/06 05:14:27;;;;;;;42.08;21.50;;;-4.60;99.90;;;;;;5075786;28;20097;-61
2022/03/06 05:16:54;;;;;;;43.72;24.35;;;-4.60;99.90;;;;;;5076616;28;20044;-61
2022/03/06 05:19:21;;;;;;;44.20;23.67;;;-4.60;99.90;;;;;;5076856;28;20040;-61
2022/03/06 05:21:48;;;;;;;47.50;23.90;;;-4.60;99.90;;;;;;5075989;28;20505;-61
2022/03/06 05:24:15;;;;;;;57.90;26.70;;;-4.60;99.90;;;;;;5076218;28;20040;-61
2022/03/06 05:26:41;;;;;;;48.45;24.95;;;-4.60;99.90;;;;;;5076510;28;20156;-61
2022/03/06 05:29:08;;;;;;;55.15;27.02;;;-4.60;99.90;;;;;;5069797;28;20045;-61
2022/03/06 05:31:35;;;;;;;54.45;24.88;;;-4.60;99.90;;;;;;5076514;28;20093;-61
2022/03/06 05:34:02;;;;;;;47.92;22.58;;;-4.60;99.90;;;;;;5069450;28;20036;-61
2022/03/06 05:36:28;;;;;;;45.88;22.60;;;-4.60;99.90;;;;;;5076024;28;20043;-61
2022/03/06 05:38:55;;;;;;;52.28;22.58;;;-4.60;99.90;;;;;;5076308;28;20044;-61
2022/03/06 05:41:22;;;;;;;57.17;26.13;;;-4.50;99.90;;;;;;5076412;28;20044;-61
2022/03/06 05:43:49;;;;;;;48.08;24.33;;;-4.50;99.90;;;;;;5073216;28;20218;-61
2022/03/06 05:46:16;;;;;;;47.42;23.73;;;-4.50;99.90;;;;;;5074789;28;20040;-62
2022/03/06 05:48:43;;;;;;;45.03;21.95;;;-4.50;99.90;;;;;;5075170;28;20097;-61
2022/03/06 05:51:09;;;;;;;45.42;22.02;;;-4.50;99.90;;;;;;5073579;28;20075;-61
2022/03/06 05:53:36;;;;;;;46.92;22.75;;;-4.50;99.90;;;;;;5040259;28;20051;-61
2022/03/06 05:56:03;;;;;;;50.80;22.95;;;-4.40;99.90;;;;;;5035716;28;20053;-61
2022/03/06 05:58:30;;;;;;;49.90;24.23;;;-4.40;99.90;;;;;;5035724;28;20040;-60
2022/03/06 06:00:57;;;;;;;43.40;22.75;;;-4.40;99.90;;;;;;5055596;28;20071;-61
2022/03/06 06:03:25;;;;;;;43.80;21.30;;;-4.40;99.90;;;;;;5075097;28;20040;-60
2022/03/06 06:05:52;;;;;;;41.38;21.48;;;-4.40;99.90;;;;;;5073587;28;20101;-61
2022/03/06 06:08:22;;;;;;;43.35;21.70;;;-4.40;99.90;;;;;;5075915;28;20054;-60
2022/03/06 06:10:49;;;;;;;48.38;21.88;;;-4.40;99.90;;;;;;5075338;28;20046;-61
2022/03/06 06:13:18;;;;;;;46.55;22.58;;;-4.40;99.90;;;;;;5075112;28;20125;-60
2022/03/06 06:15:45;;;;;;;46.47;21.17;;;-4.40;99.90;;;;;;5075728;28;20125;-60
2022/03/06 06:18:12;;;;;;;46.80;24.00;;;-4.40;99.90;;;;;;5075560;28;20040;-61
2022/03/06 06:20:40;;;;;;;45.65;21.50;;;-4.40;99.90;;;;;;5075564;28;20048;-60
2022/03/06 06:23:06;;;;;;;40.83;22.23;;;-4.30;99.90;;;;;;5074922;28;20534;-60
2022/03/06 06:25:33;;;;;;;42.80;22.65;;;-4.30;99.90;;;;;;5075654;28;20043;-60
2022/03/06 06:28:00;;;;;;;41.15;21.40;;;-4.30;99.90;;;;;;5075562;28;20052;-60
2022/03/06 06:30:27;;;;;;;46.00;23.00;;;-4.20;99.90;;;;;;5069074;28;20550;-60
2022/03/06 06:32:54;;;;;;;43.30;21.63;;;-4.20;99.90;;;;;;5072192;28;20733;-60
2022/03/06 06:35:21;;;;;;;40.38;21.60;;;-4.20;99.90;;;;;;5068489;28;20754;-54
2022/03/06 06:37:49;;;;;;;48.88;22.65;;;-4.10;99.90;;;;;;5075490;28;20029;-55
2022/03/06 06:40:16;;;;;;;44.90;21.63;;;-4.10;99.90;;;;;;5075348;28;20055;-55
2022/03/06 06:42:42;;;;;;;45.22;23.02;;;-4.00;99.90;;;;;;5075453;28;20040;-55
2022/03/06 06:45:09;;;;;;;37.50;19.27;;;-3.90;99.90;;;;;;5074387;28;20574;-57
2022/03/06 06:47:36;;;;;;;45.35;21.77;;;-3.90;99.90;;;;;;5075616;28;20101;-54
2022/03/06 06:50:04;;;;;;;44.92;22.65;;;-3.80;99.90;;;;;;5058675;28;20075;-55
2022/03/06 06:52:31;;;;;;;49.22;25.75;;;-3.70;99.90;;;;;;5039911;28;20041;-55
2022/03/06 06:54:57;;;;;;;47.13;23.30;;;-3.60;99.90;;;;;;5033277;28;20053;-56
2022/03/06 06:57:24;;;;;;;49.95;24.13;;;-3.50;99.90;;;;;;5034395;28;20053;-55
2022/03/06 06:59:51;;;;;;;49.35;23.67;;;-3.40;99.90;;;;;;5034413;28;20041;-56
2022/03/06 07:02:18;;;;;;;46.20;22.55;;;-3.40;99.90;;;;;;5034204;28;20036;-56
2022/03/06 07:04:45;;;;;;;49.95;23.00;;;-3.20;99.90;;;;;;5032243;28;20044;-56
2022/03/06 07:07:12;;;;;;;51.58;24.08;;;-3.10;99.90;;;;;;5033372;28;20606;-55
2022/03/06 07:09:38;;;;;;;47.97;24.02;;;-2.90;99.90;;;;;;5034172;28;20106;-55
2022/03/06 07:12:06;;;;;;;;;;;-2.70;99.90;;;;;;5037312;28;20069;-56
2022/03/06 07:14:33;;;;;;;;;;;-2.50;99.90;;;;;;5038134;28;19928;-56
2022/03/06 07:17:00;;;;;;;47.08;23.38;;;-2.30;99.90;;;;;;5020081;28;19956;-56
2022/03/06 07:19:27;;;;;;;48.13;23.27;;;-2.10;99.90;;;;;;5036954;28;20098;-55
2022/03/06 07:21:53;;;;;;;42.85;23.40;;;-1.90;99.90;;;;;;5036821;28;20040;-55
2022/03/06 07:24:20;;;;;;;44.50;23.52;;;-1.70;99.90;;;;;;5055153;28;20078;-55
2022/03/06 07:26:47;;;;;;;51.92;24.67;;;-1.50;99.90;;;;;;5057257;28;20252;-55
2022/03/06 07:29:14;;;;;;;44.72;22.48;;;-1.30;99.90;;;;;;5062030;28;20044;-55
2022/03/06 07:31:41;;;;;;;47.05;24.55;;;-1.10;99.90;;;;;;5057915;28;20060;-55
2022/03/06 07:34:07;;;;;;;;;;;-0.90;99.90;;;;;;5063188;28;20047;-55
2022/03/06 07:36:34;;;;;;;49.92;23.20;;;-0.50;99.90;;;;;;5057438;28;19932;-55
2022/03/06 07:39:01;;;;;;;51.63;25.95;;;-0.20;99.90;;;;;;5057973;28;20118;-56
2022/03/06 07:41:28;;;;;;;44.17;24.25;;;0.20;99.90;;;;;;5056507;28;20059;-56
2022/03/06 07:43:55;;;;;;;54.65;24.65;;;0.40;99.90;;;;;;5056978;28;20954;-56
2022/03/06 07:46:22;;;;;;;48.20;23.73;;;0.40;99.90;;;;;;5055625;28;20152;-56
2022/03/06 07:48:48;;;;;;;45.70;23.60;;;0.40;99.90;;;;;;5057382;28;20044;-56
2022/03/06 07:51:16;;;;;;;;;;;0.50;99.90;;;;;;5060765;28;20051;-56
2022/03/06 07:53:42;;;;;;;48.38;23.70;;;0.60;99.90;;;;;;5060624;28;19974;-56
2022/03/06 07:56:09;;;;;;;;;;;0.70;99.90;;;;;;5056925;28;20055;-56
2022/03/06 07:58:36;;;;;;;46.63;22.23;;;0.90;99.90;;;;;;5057095;28;20372;-56
2022/03/06 08:01:02;;;;;;;;;;;1.00;99.90;;;;;;5058163;28;20039;-56
2022/03/06 08:03:29;;;;;;;50.00;22.58;;;1.20;99.90;;;;;;5053675;28;19928;-56
2022/03/06 08:05:56;;;;;;;46.50;24.52;;;1.50;99.90;;;;;;5056140;28;20040;-56
2022/03/06 08:08:23;;;;;;;48.20;25.17;;;1.60;99.90;;;;;;5056413;28;20044;-56
2022/03/06 08:10:50;;;;;;;;;;;1.80;99.90;;;;;;5071859;28;20828;-56
2022/03/06 08:13:16;;;;;;;60.95;26.90;;;2.00;99.90;;;;;;5056490;28;19924;-56
2022/03/06 08:15:43;;;;;;;48.90;24.30;;;2.30;99.90;;;;;;5042165;28;20127;-56
2022/03/06 08:18:10;;;;;;;;;;;2.60;99.90;;;;;;5036468;28;20622;-56
2022/03/06 08:20:37;;;;;;;49.40;24.58;;;2.90;99.90;;;;;;5035551;28;20027;-56
2022/03/06 08:23:04;;;;;;;44.47;23.90;;;3.10;99.90;;;;;;5035280;28;20051;-57
2022/03/06 08:25:31;;;;;;;46.80;24.50;;;3.40;99.80;;;;;;5036049;28;20536;-56
2022/03/06 08:27:58;;;;;;;40.88;23.13;;;3.60;98.50;;;;;;5035980;28;20079;-56
2022/03/06 08:30:25;;;;;;;;;;;3.90;99.00;;;;;;5042548;28;20040;-56
2022/03/06 08:32:51;;;;;;;42.40;22.77;;;4.10;98.90;;;;;;5036300;28;20555;-56
2022/03/06 08:35:19;;;;;;;50.30;23.75;;;4.30;98.30;;;;;;5034762;28;20049;-57
2022/03/06 08:37:45;;;;;;;37.88;22.05;;;4.50;98.20;;;;;;5036430;28;20616;-57
2022/03/06 08:40:12;;;;;;;;;;;4.60;97.60;;;;;;5036733;28;20103;-56
2022/03/06 08:42:39;;;;;;;41.17;23.48;;;4.70;97.70;;;;;;5036383;28;19978;-56
2022/03/06 08:45:07;;;;;;;45.50;24.02;;;4.80;97.00;;;;;;5035348;28;20065;-56
2022/03/06 08:47:34;;;;;;;40.15;22.50;;;5.00;96.40;;;;;;5039111;28;20761;-55
2022/03/06 08:50:01;;;;;;;;;;;5.20;96.30;;;;;;5056363;28;20178;-55
2022/03/06 08:52:27;;;;;;;44.78;22.70;;;5.40;94.40;;;;;;5058651;28;19982;-57
2022/03/06 08:54:54;;;;;;;46.15;22.88;;;5.60;93.80;;;;;;5034640;28;20052;-58
2022/03/06 08:57:23;;;;;;;44.40;22.88;;;5.70;94.10;;;;;;5035843;28;20099;-59
2022/03/06 08:59:50;;;;;;;40.97;22.25;;;5.70;92.30;;;;;;5039901;28;20060;-57
2022/03/06 09:02:17;;;;;;;47.80;24.23;;;5.80;91.10;;;;;;5075443;28;20082;-57
2022/03/06 09:04:44;;;;;;;41.78;23.70;;;5.90;90.30;;;;;;5075319;28;20051;-58
2022/03/06 09:07:11;;;;;;;52.30;24.08;;;6.10;90.00;;;;;;5075739;28;20085;-57
2022/03/06 09:09:38;;;;;;;40.65;23.60;;;6.20;90.00;;;;;;5075568;28;20044;-57
2022/03/06 09:12:05;;;;;;;;;;;6.20;90.00;;;;;;5075925;28;20052;-57
2022/03/06 09:14:32;;;;;;;47.20;25.70;;;6.20;87.40;;;;;;5075485;28;19935;-56
2022/03/06 09:17:00;;;;;;;51.30;24.25;;;6.20;87.20;;;;;;5050693;28;20048;-56
2022/03/06 09:19:27;;;;;;;41.33;23.13;;;6.20;85.20;;;;;;5034238;28;20033;-54
2022/03/06 09:21:54;;;;;;;41.42;23.55;;;6.10;85.50;;;;;;5034915;28;20041;-56
2022/03/06 09:24:21;;;;;;;48.80;25.15;;;6.00;85.10;;;;;;5030760;28;20505;-56
2022/03/06 09:26:48;;;;;;;39.67;23.35;;;5.90;85.60;;;;;;5032667;28;20867;-56
2022/03/06 09:29:14;;;;;;;;;;;5.70;84.30;;;;;;5044148;28;20041;-56
2022/03/06 09:31:43;;;;;;;44.25;24.20;;;5.50;84.80;;;;;;5033125;28;20678;-59
2022/03/06 09:34:10;;;;;;;47.85;25.95;;;5.30;85.70;;;;;;5045478;28;20727;-52
2022/03/06 09:36:46;;;;;;;47.17;25.63;;;5.20;87.20;;;;;;5030665;28;20091;-53
2022/03/06 09:39:14;;;;;;;45.80;25.08;;;5.00;87.10;;;;;;5032175;28;20095;-56
2022/03/06 09:41:41;;;;;;;44.70;25.10;;;4.90;87.40;;;;;;5032503;28;20045;-54
2022/03/06 09:44:11;;;;;;;42.38;24.10;;;4.80;87.00;;;;;;5027751;28;20060;-58
2022/03/06 09:46:39;;;;;;;45.22;24.45;;;4.80;87.20;;;;;;5013777;28;21051;-63
2022/03/06 09:49:08;;;;;;;46.45;26.13;;;4.80;87.70;;;;;;5031835;28;20644;-56
2022/03/06 09:51:40;;;;;;;45.20;25.60;;;4.70;88.60;;;;;;5042453;28;20051;-56
2022/03/06 09:54:09;;;;;;;46.00;26.40;;;4.40;90.00;;;;;;5051162;28;20045;-48
2022/03/06 09:56:36;;;;;;;44.92;23.40;;;4.20;90.50;;;;;;5048012;28;20052;-48
2022/03/06 09:59:03;;;;;;;;;;;4.00;90.50;;;;;;5047802;28;20041;-56
2022/03/06 10:01:29;;;;;;;41.40;24.27;;;3.90;90.80;;;;;;5031422;28;20203;-57
2022/03/06 10:03:57;;;;;;;43.90;24.17;;;3.80;91.70;;;;;;5029251;28;20764;-57
2022/03/06 10:06:26;;;;;;;;;;;3.70;91.50;;;;;;5030265;28;20048;-57
2022/03/06 10:09:04;;;;;;;40.35;22.30;;;3.70;91.90;;;;;;5047069;28;19931;-58
2022/03/06 10:11:31;;;;;;;46.72;25.27;;;3.60;91.90;;;;;;5050192;28;20134;-58
2022/03/06 10:13:58;;;;;;;;;;;3.70;92.10;;;;;;5050221;28;20037;-57
2022/03/06 10:16:25;;;;;;;43.30;22.77;;;3.80;92.20;;;;;;5050067;28;19993;-57
2022/03/06 10:18:52;;;;;;;;;;;4.00;91.30;;;;;;5051405;28;20044;-58
2022/03/06 10:21:24;;;;;;;43.78;23.65;;;4.30;91.20;;;;;;5050948;28;19950;-59
2022/03/06 10:23:54;;;;;;;41.50;23.38;;;4.60;90.70;;;;;;5049112;28;20118;-58
2022/03/06 10:26:26;;;;;;;48.58;25.95;;;4.70;90.50;;;;;;5050709;28;20046;-58
2022/03/06 10:28:58;;;;;;;42.97;26.17;;;4.80;90.60;;;;;;5038919;28;20041;-58
2022/03/06 10:31:28;;;;;;;45.97;24.92;;;4.80;90.00;;;;;;5032353;28;20106;-58
2022/03/06 10:34:08;;;;;;;45.33;24.00;;;4.80;90.00;;;;;;5038083;28;20044;-58
2022/03/06 10:36:35;;;;;;;42.25;24.85;;;4.90;90.20;;;;;;5050110;28;20345;-58
2022/03/06 10:39:03;;;;;;;;;;;5.10;87.90;;;;;;5035445;28;20075;-58
2022/03/06 10:41:35;;;;;;;43.75;24.48;;;5.30;87.90;;;;;;5031798;28;20421;-58
2022/03/06 10:44:03;;;;;;;46.42;27.27;;;5.70;88.60;;;;;;5030696;28;20056;-58
2022/03/06 10:46:33;;;;;;;45.45;26.13;;;5.90;85.90;;;;;;5034275;28;20033;-58
2022/03/06 10:49:12;;;;;;;40.38;23.38;;;6.10;85.10;;;;;;5052422;28;20129;-59
2022/03/06 10:51:40;;;;;;;42.58;26.08;;;6.50;84.30;;;;;;5053918;28;20460;-58
2022/03/06 10:54:08;;;;;;;45.42;25.35;;;6.70;80.50;;;;;;5033946;28;20033;-58
2022/03/06 10:56:35;;;;;;;40.30;24.10;;;6.80;77.70;;;;;;5034390;28;20040;-58
2022/03/06 10:59:06;;;;;;;40.75;23.92;;;6.80;78.10;;;;;;5036669;28;20045;-58
2022/03/06 11:01:34;;;;;;;39.75;24.20;;;6.70;77.20;;;;;;5035110;28;20044;-58
2022/03/06 11:04:03;;;;;;;43.78;25.98;;;6.70;77.20;;;;;;5051637;28;20599;-58
2022/03/06 11:06:40;;;;;;;46.58;24.92;;;6.80;77.60;;;;;;5054101;28;20326;-58
2022/03/06 11:09:11;;;;;;;41.38;24.67;;;7.00;77.70;;;;;;5053913;28;20098;-58
2022/03/06 11:11:41;;;;;;;42.05;25.83;;;7.30;77.00;;;;;;5053856;28;20048;-58
2022/03/06 11:14:08;;;;;;;39.00;24.48;;;7.70;75.40;;;;;;5052378;28;20052;-58
2022/03/06 11:16:36;;;;;;;39.97;24.75;;;8.00;73.10;;;;;;5053582;28;20048;-58
2022/03/06 11:19:05;;;;;;;43.20;24.77;;;8.30;71.40;;;;;;5054678;28;20048;-58
2022/03/06 11:21:41;;;;;;;41.00;25.00;;;8.60;69.60;;;;;;5054786;28;20051;-57
2022/03/06 11:24:20;;;;;;;39.55;23.70;;;8.80;68.40;;;;;;5053785;28;20056;-58
2022/03/06 11:27:08;;;;;;;41.05;24.85;;;9.10;68.70;;;;;;5034142;28;20052;-58
2022/03/06 11:29:53;;;;;;;41.95;24.60;;;9.30;66.80;;;;;;5041512;28;20049;-58
2022/03/06 11:32:29;;;;;;;38.22;23.85;;;9.40;65.10;;;;;;5052620;28;20054;-58
2022/03/06 11:35:06;;;;;;;40.47;24.52;;;9.30;64.10;;;;;;5039972;28;20072;-58
2022/03/06 11:37:52;;;;;;;43.92;26.42;;;9.40;63.60;;;;;;5052404;28;20033;-58
2022/03/06 11:40:44;;;;;;;38.08;24.60;;;9.50;60.80;;;;;;5053884;28;20052;-58
2022/03/06 11:43:43;;;;;;;36.42;22.45;;;9.60;60.90;;;;;;5054090;28;20035;-58
2022/03/06 11:46:18;;;;;;;35.42;22.92;;;9.60;60.20;;;;;;5053685;28;20050;-59
2022/03/06 11:48:45;;;;;;;42.85;25.05;;;9.80;59.90;;;;;;5054459;28;20056;-59
2022/03/06 11:51:21;;;;;;;;;;;9.80;58.90;;;;;;5057638;28;20083;-59
2022/03/06 11:53:57;;;;;;;40.35;23.77;;;9.60;57.70;;;;;;5056039;28;20560;-58
2022/03/06 11:59:01;;;;;;;36.35;23.98;;;9.70;58.00;;;;;;5050998;28;21213;-58
2022/03/06 12:01:35;;;;;;;39.20;23.67;;;9.80;58.00;;;;;;5047094;28;20048;-62
2022/03/06 12:04:13;;;;;;;36.60;22.60;;;9.90;57.80;;;;;;5053370;28;20052;-56
2022/03/06 12:06:46;;;;;;;34.80;23.05;;;9.90;57.10;;;;;;5054355;28;20048;-56
2022/03/06 12:09:18;;;;;;;36.53;22.35;;;10.00;56.80;;;;;;5053333;28;20036;-56
2022/03/06 12:11:54;;;;;;;36.30;24.00;;;10.00;56.20;;;;;;5053397;28;20658;-56
2022/03/06 12:14:22;;;;;;;36.65;22.50;;;10.10;55.30;;;;;;5053104;28;20055;-57
2022/03/06 12:17:04;;;;;;;36.80;24.60;;;10.20;55.40;;;;;;5052393;28;20067;-57
2022/03/06 12:19:44;;;;;;;40.72;24.50;;;10.40;55.00;;;;;;5053812;28;20079;-57
2022/03/06 12:22:33;;;;;;;40.85;25.25;;;10.30;55.30;;;;;;5053535;28;20047;-57
2022/03/06 12:25:06;;;;;;;39.03;25.17;;;10.40;55.30;;;;;;5052979;28;20044;-57
2022/03/06 12:27:34;;;;;;;38.90;24.20;;;10.50;55.80;;;;;;5053918;28;20036;-57
2022/03/06 12:30:10;;;;;;;35.17;22.60;;;10.40;55.40;;;;;;5046807;28;20047;-57
2022/03/06 12:32:42;;;;;;;36.67;23.35;;;10.30;54.70;;;;;;5053763;28;20715;-57
2022/03/06 12:35:15;;;;;;;36.40;23.67;;;10.20;56.10;;;;;;5058985;28;20047;-57
2022/03/06 12:37:56;;;;;;;36.47;24.08;;;10.30;55.70;;;;;;5053180;28;20044;-57
2022/03/06 12:40:28;;;;;;;37.97;25.17;;;10.30;55.60;;;;;;5052692;28;20040;-57
2022/03/06 12:43:03;;;;;;;38.75;24.60;;;10.40;55.00;;;;;;5053087;28;20110;-57
2022/03/06 12:45:31;;;;;;;34.00;22.55;;;10.50;54.70;;;;;;5052336;28;20048;-57
2022/03/06 12:47:58;;;;;;;37.10;23.98;;;10.60;54.20;;;;;;5052786;28;20040;-57